Terminal Aerodrome Forecast
Issued by NWS Shreveport, LA

Home | Current Version | Previous Version | Text Only | Print | Product List | Glossary On
Versions: 1 2 3 4 5 6 7 8 9 10 11 12 13 14
000
FTUS44 KSHV 192323
TAFSHV
TAF
KSHV 192323Z 2000/2024 35006KT P6SM SCT300
     FM200100 00000KT P6SM BKN280
     FM201500 15005KT P6SM BKN280=

USA.gov is the U.S. government's official web portal to all federal, state and local government web resources and services.